sensor_id;sensor_type;location;lat;lon;timestamp;pressure;altitude;pressure_sealevel;temperature;humidity
39823;BME280;25499;53.958;10.970;2022-09-09T06:12:36;100767.94;;;13.80;100.00
39823;BME280;25499;53.958;10.970;2022-09-09T06:15:02;100781.75;;;13.90;100.00
39823;BME280;25499;53.958;10.970;2022-09-09T06:17:27;100775.69;;;13.87;100.00
39823;BME280;25499;53.958;10.970;2022-09-09T06:19:52;100784.19;;;13.99;100.00
39823;BME280;25499;53.958;10.970;2022-09-09T06:22:18;100798.91;;;14.05;100.00
39823;BME280;25499;53.958;10.970;2022-09-09T06:24:44;100793.69;;;14.05;100.00
39823;BME280;25499;53.958;10.970;2022-09-09T06:27:10;100795.41;;;14.06;100.00
39823;BME280;25499;53.958;10.970;2022-09-09T06:29:36;100790.09;;;14.12;100.00
39823;BME280;25499;53.958;10.970;2022-09-09T06:32:02;100787.44;;;14.15;100.00
39823;BME280;25499;53.958;10.970;2022-09-09T06:34:28;100788.25;;;14.17;100.00
39823;BME280;25499;53.958;10.970;2022-09-09T06:36:53;100792.59;;;14.17;100.00
39823;BME280;25499;53.958;10.970;2022-09-09T06:39:19;100794.25;;;14.24;100.00
39823;BME280;25499;53.958;10.970;2022-09-09T06:41:44;100794.31;;;14.21;100.00
39823;BME280;25499;53.958;10.970;2022-09-09T06:44:10;100803.91;;;14.21;100.00
39823;BME280;25499;53.958;10.970;2022-09-09T06:46:38;100805.75;;;14.15;100.00
39823;BME280;25499;53.958;10.970;2022-09-09T06:49:04;100822.16;;;14.25;100.00
39823;BME280;25499;53.958;10.970;2022-09-09T06:51:34;100816.06;;;14.25;100.00
39823;BME280;25499;53.958;10.970;2022-09-09T06:54:02;100826.56;;;14.23;100.00
39823;BME280;25499;53.958;10.970;2022-09-09T06:56:29;100824.75;;;14.27;100.00
39823;BME280;25499;53.958;10.970;2022-09-09T06:58:57;100819.41;;;14.33;100.00
39823;BME280;25499;53.958;10.970;2022-09-09T07:01:28;100825.44;;;14.38;100.00
39823;BME280;25499;53.958;10.970;2022-09-09T07:03:56;100824.44;;;14.44;100.00
39823;BME280;25499;53.958;10.970;2022-09-09T07:06:33;100831.00;;;14.68;100.00
39823;BME280;25499;53.958;10.970;2022-09-09T07:09:07;100824.16;;;14.61;100.00
39823;BME280;25499;53.958;10.970;2022-09-09T07:11:48;100829.44;;;14.59;100.00
39823;BME280;25499;53.958;10.970;2022-09-09T07:14:14;100833.63;;;14.68;100.00
39823;BME280;25499;53.958;10.970;2022-09-09T07:16:43;100832.81;;;14.66;100.00
39823;BME280;25499;53.958;10.970;2022-09-09T07:19:10;100828.59;;;14.59;100.00
39823;BME280;25499;53.958;10.970;2022-09-09T07:21:36;100841.41;;;14.74;100.00
39823;BME280;25499;53.958;10.970;2022-09-09T07:24:02;100844.19;;;14.65;100.00
39823;BME280;25499;53.958;10.970;2022-09-09T07:26:30;100847.47;;;14.76;100.00
39823;BME280;25499;53.958;10.970;2022-09-09T07:28:56;100849.66;;;14.99;100.00
39823;BME280;25499;53.958;10.970;2022-09-09T07:31:30;100847.84;;;15.01;100.00
39823;BME280;25499;53.958;10.970;2022-09-09T07:33:56;100843.38;;;15.06;100.00
39823;BME280;25499;53.958;10.970;2022-09-09T07:36:24;100846.75;;;15.13;100.00
39823;BME280;25499;53.958;10.970;2022-09-09T07:39:08;100851.28;;;15.05;100.00
39823;BME280;25499;53.958;10.970;2022-09-09T07:41:37;100848.94;;;14.91;100.00
39823;BME280;25499;53.958;10.970;2022-09-09T07:44:05;100851.56;;;14.91;100.00
39823;BME280;25499;53.958;10.970;2022-09-09T07:46:31;100853.28;;;14.94;100.00
39823;BME280;25499;53.958;10.970;2022-09-09T07:48:57;100851.22;;;15.08;100.00
39823;BME280;25499;53.958;10.970;2022-09-09T07:51:29;100857.19;;;15.16;100.00
39823;BME280;25499;53.958;10.970;2022-09-09T07:53:59;100853.53;;;15.23;100.00
39823;BME280;25499;53.958;10.970;2022-09-09T07:56:26;100847.91;;;15.42;100.00
39823;BME280;25499;53.958;10.970;2022-09-09T07:58:53;100855.41;;;15.59;100.00
39823;BME280;25499;53.958;10.970;2022-09-09T08:01:31;100849.72;;;15.79;100.00
39823;BME280;25499;53.958;10.970;2022-09-09T08:03:59;100864.38;;;15.89;100.00
39823;BME280;25499;53.958;10.970;2022-09-09T08:06:27;100869.16;;;15.70;100.00
39823;BME280;25499;53.958;10.970;2022-09-09T08:08:54;100880.88;;;15.94;100.00
39823;BME280;25499;53.958;10.970;2022-09-09T08:11:23;100864.31;;;16.28;100.00
39823;BME280;25499;53.958;10.970;2022-09-09T08:13:50;100871.25;;;16.29;100.00
39823;BME280;25499;53.958;10.970;2022-09-09T08:16:24;100870.56;;;16.91;100.00
39823;BME280;25499;53.958;10.970;2022-09-09T08:18:52;100875.66;;;16.98;99.46
39823;BME280;25499;53.958;10.970;2022-09-09T08:21:19;100884.06;;;17.10;98.01
39823;BME280;25499;53.958;10.970;2022-09-09T08:23:46;100877.88;;;17.13;97.39
39823;BME280;25499;53.958;10.970;2022-09-09T08:26:13;100876.34;;;17.04;98.18
39823;BME280;25499;53.958;10.970;2022-09-09T08:28:40;100888.72;;;17.62;98.25
39823;BME280;25499;53.958;10.970;2022-09-09T08:31:20;100887.31;;;17.78;94.92
39823;BME280;25499;53.958;10.970;2022-09-09T08:33:46;100888.03;;;17.83;93.25
39823;BME280;25499;53.958;10.970;2022-09-09T08:36:15;100889.56;;;17.32;94.56
39823;BME280;25499;53.958;10.970;2022-09-09T08:38:46;100889.00;;;17.23;95.85
39823;BME280;25499;53.958;10.970;2022-09-09T08:44:16;100892.31;;;16.98;96.85
39823;BME280;25499;53.958;10.970;2022-09-09T08:46:51;100891.69;;;16.88;97.84
39823;BME280;25499;53.958;10.970;2022-09-09T08:52:23;100899.38;;;16.96;96.27
39823;BME280;25499;53.958;10.970;2022-09-09T08:54:52;100909.25;;;17.19;98.30
39823;BME280;25499;53.958;10.970;2022-09-09T08:57:25;100906.34;;;16.97;97.78
39823;BME280;25499;53.958;10.970;2022-09-09T08:59:52;100898.53;;;16.95;97.44
39823;BME280;25499;53.958;10.970;2022-09-09T09:05:23;100909.91;;;16.96;96.84
39823;BME280;25499;53.958;10.970;2022-09-09T09:10:35;100920.88;;;16.77;97.83
39823;BME280;25499;53.958;10.970;2022-09-09T09:13:10;100915.66;;;17.09;98.28
39823;BME280;25499;53.958;10.970;2022-09-09T09:15:38;100908.63;;;17.11;96.96
39823;BME280;25499;53.958;10.970;2022-09-09T09:18:04;100905.19;;;17.07;96.51
39823;BME280;25499;53.958;10.970;2022-09-09T11:01:37;100922.66;;;19.08;83.67
39823;BME280;25499;53.958;10.970;2022-09-09T11:04:17;100915.94;;;19.70;82.01
39823;BME280;25499;53.958;10.970;2022-09-09T11:06:48;100928.19;;;20.18;80.06
39823;BME280;25499;53.958;10.970;2022-09-09T11:09:21;100917.38;;;21.67;75.39
39823;BME280;25499;53.958;10.970;2022-09-09T11:11:57;100905.03;;;21.47;71.46
39823;BME280;25499;53.958;10.970;2022-09-09T11:14:30;100915.63;;;23.10;69.15
39823;BME280;25499;53.958;10.970;2022-09-09T11:17:01;100896.28;;;22.73;67.47
39823;BME280;25499;53.958;10.970;2022-09-09T11:19:34;100894.78;;;24.76;63.08
39823;BME280;25499;53.958;10.970;2022-09-09T11:25:15;100877.97;;;25.19;60.11
39823;BME280;25499;53.958;10.970;2022-09-09T11:33:16;100899.66;;;24.53;63.07
39823;BME280;25499;53.958;10.970;2022-09-09T11:38:54;100903.63;;;24.16;60.50
39823;BME280;25499;53.958;10.970;2022-09-09T11:41:33;100904.50;;;25.20;59.83
39823;BME280;25499;53.958;10.970;2022-09-09T11:43:59;100894.25;;;25.43;59.45
39823;BME280;25499;53.958;10.970;2022-09-09T11:46:35;100892.16;;;26.57;56.88
39823;BME280;25499;53.958;10.970;2022-09-09T11:49:05;100894.72;;;26.05;56.61
39823;BME280;25499;53.958;10.970;2022-09-09T11:51:33;100890.81;;;26.90;56.19
39823;BME280;25499;53.958;10.970;2022-09-09T11:54:00;100895.28;;;26.23;54.48
39823;BME280;25499;53.958;10.970;2022-09-09T11:56:42;100887.25;;;26.11;54.80
39823;BME280;25499;53.958;10.970;2022-09-09T11:59:37;100901.41;;;25.84;56.17
39823;BME280;25499;53.958;10.970;2022-09-09T12:02:12;100891.38;;;25.87;54.35
39823;BME280;25499;53.958;10.970;2022-09-09T12:05:07;100899.47;;;25.59;56.25
39823;BME280;25499;53.958;10.970;2022-09-09T12:07:51;100903.72;;;26.30;55.16
39823;BME280;25499;53.958;10.970;2022-09-09T12:10:32;100897.78;;;25.99;54.93
39823;BME280;25499;53.958;10.970;2022-09-09T12:13:16;100886.84;;;25.34;55.45
39823;BME280;25499;53.958;10.970;2022-09-09T12:15:53;100887.56;;;25.21;55.85
39823;BME280;25499;53.958;10.970;2022-09-09T12:18:32;100871.41;;;25.24;54.61
39823;BME280;25499;53.958;10.970;2022-09-09T12:21:21;100868.63;;;23.60;57.03
39823;BME280;25499;53.958;10.970;2022-09-09T12:29:53;100873.13;;;24.52;56.69
39823;BME280;25499;53.958;10.970;2022-09-09T12:32:24;100882.09;;;23.73;57.25
39823;BME280;25499;53.958;10.970;2022-09-09T12:34:56;100871.72;;;23.84;56.88
39823;BME280;25499;53.958;10.970;2022-09-09T12:37:32;100868.81;;;23.89;56.58
39823;BME280;25499;53.958;10.970;2022-09-09T12:40:35;100869.66;;;23.41;56.06
39823;BME280;25499;53.958;10.970;2022-09-09T12:43:15;100877.97;;;23.02;58.57
39823;BME280;25499;53.958;10.970;2022-09-09T12:45:41;100877.47;;;22.43;60.53
39823;BME280;25499;53.958;10.970;2022-09-09T12:48:08;100879.56;;;22.53;61.60
39823;BME280;25499;53.958;10.970;2022-09-09T12:50:57;100883.34;;;22.13;61.05
39823;BME280;25499;53.958;10.970;2022-09-09T12:53:23;100867.06;;;21.84;60.96
39823;BME280;25499;53.958;10.970;2022-09-09T12:58:20;100865.41;;;21.64;62.06
39823;BME280;25499;53.958;10.970;2022-09-09T13:00:50;100872.38;;;21.84;63.29
39823;BME280;25499;53.958;10.970;2022-09-09T13:03:19;100868.56;;;21.90;62.56
39823;BME280;25499;53.958;10.970;2022-09-09T13:05:46;100864.22;;;21.70;62.62
39823;BME280;25499;53.958;10.970;2022-09-09T13:08:15;100866.59;;;21.57;62.44
39823;BME280;25499;53.958;10.970;2022-09-09T13:11:01;100859.34;;;21.22;63.02
39823;BME280;25499;53.958;10.970;2022-09-09T13:15:59;100858.94;;;21.32;63.93
39823;BME280;25499;53.958;10.970;2022-09-09T13:18:31;100852.19;;;21.43;64.46
39823;BME280;25499;53.958;10.970;2022-09-09T13:20:58;100856.41;;;21.67;64.52
39823;BME280;25499;53.958;10.970;2022-09-09T13:23:29;100848.75;;;21.60;64.50
39823;BME280;25499;53.958;10.970;2022-09-09T13:25:59;100845.03;;;21.27;62.38
39823;BME280;25499;53.958;10.970;2022-09-09T13:28:29;100842.41;;;21.06;63.16
39823;BME280;25499;53.958;10.970;2022-09-09T13:30:59;100843.94;;;21.31;62.54
39823;BME280;25499;53.958;10.970;2022-09-09T13:33:43;100844.88;;;21.30;63.90
39823;BME280;25499;53.958;10.970;2022-09-09T13:36:10;100854.59;;;21.10;63.73
39823;BME280;25499;53.958;10.970;2022-09-09T13:38:56;100855.13;;;21.18;65.56
39823;BME280;25499;53.958;10.970;2022-09-09T13:41:24;100843.88;;;21.13;64.29
39823;BME280;25499;53.958;10.970;2022-09-09T13:43:51;100857.78;;;21.18;65.36
39823;BME280;25499;53.958;10.970;2022-09-09T13:46:36;100857.53;;;21.04;64.16
39823;BME280;25499;53.958;10.970;2022-09-09T13:51:39;100856.75;;;21.02;65.28
39823;BME280;25499;53.958;10.970;2022-09-09T13:54:09;100866.88;;;20.92;66.02
39823;BME280;25499;53.958;10.970;2022-09-09T13:56:36;100863.38;;;20.92;66.20
39823;BME280;25499;53.958;10.970;2022-09-09T13:59:13;100859.56;;;20.78;65.37
39823;BME280;25499;53.958;10.970;2022-09-09T14:01:39;100860.47;;;20.77;65.17
39823;BME280;25499;53.958;10.970;2022-09-09T14:04:04;100850.69;;;20.79;65.01
39823;BME280;25499;53.958;10.970;2022-09-09T14:06:32;100854.69;;;20.69;66.10
39823;BME280;25499;53.958;10.970;2022-09-09T14:08:58;100848.25;;;20.75;65.55
39823;BME280;25499;53.958;10.970;2022-09-09T14:11:24;100852.19;;;20.85;66.48
39823;BME280;25499;53.958;10.970;2022-09-09T14:13:49;100848.97;;;20.78;65.53
39823;BME280;25499;53.958;10.970;2022-09-09T14:16:17;100839.53;;;20.73;65.16
39823;BME280;25499;53.958;10.970;2022-09-09T14:18:44;100844.84;;;20.50;65.25
39823;BME280;25499;53.958;10.970;2022-09-09T14:21:10;100838.38;;;20.37;66.81
39823;BME280;25499;53.958;10.970;2022-09-09T14:23:36;100834.59;;;20.22;66.08
39823;BME280;25499;53.958;10.970;2022-09-09T14:26:02;100832.13;;;20.18;66.87
39823;BME280;25499;53.958;10.970;2022-09-09T14:28:28;100844.63;;;20.14;68.24
39823;BME280;25499;53.958;10.970;2022-09-09T14:30:54;100836.97;;;20.08;68.52
39823;BME280;25499;53.958;10.970;2022-09-09T14:33:19;100842.63;;;19.99;69.22
39823;BME280;25499;53.958;10.970;2022-09-09T14:35:45;100842.13;;;19.89;69.13
39823;BME280;25499;53.958;10.970;2022-09-09T14:38:11;100844.59;;;19.93;69.58
39823;BME280;25499;53.958;10.970;2022-09-09T14:40:37;100837.78;;;19.88;69.95
39823;BME280;25499;53.958;10.970;2022-09-09T14:43:04;100841.09;;;19.93;70.17
39823;BME280;25499;53.958;10.970;2022-09-09T14:45:29;100844.41;;;19.98;70.85
39823;BME280;25499;53.958;10.970;2022-09-09T14:47:54;100852.28;;;19.78;71.85
39823;BME280;25499;53.958;10.970;2022-09-09T14:50:21;100863.53;;;19.83;72.52
39823;BME280;25499;53.958;10.970;2022-09-09T14:52:46;100865.38;;;19.81;73.26
39823;BME280;25499;53.958;10.970;2022-09-09T14:55:12;100863.41;;;19.62;73.52
39823;BME280;25499;53.958;10.970;2022-09-09T14:57:38;100868.34;;;19.48;74.93
39823;BME280;25499;53.958;10.970;2022-09-09T15:00:04;100870.09;;;19.49;75.40
39823;BME280;25499;53.958;10.970;2022-09-09T15:02:30;100881.88;;;19.40;75.93
39823;BME280;25499;53.958;10.970;2022-09-09T15:04:56;100881.81;;;19.42;76.98
39823;BME280;25499;53.958;10.970;2022-09-09T15:07:23;100882.72;;;19.17;78.50
39823;BME280;25499;53.958;10.970;2022-09-09T15:09:48;100875.88;;;18.88;79.06
39823;BME280;25499;53.958;10.970;2022-09-09T15:12:14;100889.34;;;18.78;79.37
39823;BME280;25499;53.958;10.970;2022-09-09T15:14:40;100876.38;;;18.47;80.43
39823;BME280;25499;53.958;10.970;2022-09-09T15:17:05;100882.09;;;18.33;79.43
39823;BME280;25499;53.958;10.970;2022-09-09T15:19:30;100866.69;;;18.21;78.74
39823;BME280;25499;53.958;10.970;2022-09-09T15:21:57;100870.69;;;18.33;79.26
39823;BME280;25499;53.958;10.970;2022-09-09T15:24:24;100865.97;;;18.16;78.49
39823;BME280;25499;53.958;10.970;2022-09-09T15:26:50;100862.94;;;18.28;78.46
39823;BME280;25499;53.958;10.970;2022-09-09T15:29:16;100869.63;;;18.38;78.78
39823;BME280;25499;53.958;10.970;2022-09-09T15:31:41;100862.81;;;18.31;77.55
39823;BME280;25499;53.958;10.970;2022-09-09T15:34:07;100863.47;;;18.38;77.67
39823;BME280;25499;53.958;10.970;2022-09-09T15:36:35;100858.72;;;18.22;76.63
39823;BME280;25499;53.958;10.970;2022-09-09T15:39:03;100853.56;;;18.19;76.25
39823;BME280;25499;53.958;10.970;2022-09-09T15:41:29;100852.91;;;18.13;76.17
39823;BME280;25499;53.958;10.970;2022-09-09T15:43:57;100843.41;;;18.07;74.72
39823;BME280;25499;53.958;10.970;2022-09-09T15:46:57;100846.31;;;17.99;74.46
39823;BME280;25499;53.958;10.970;2022-09-09T15:49:20;100857.72;;;18.00;75.07
39823;BME280;25499;53.958;10.970;2022-09-09T15:51:51;100854.09;;;18.02;75.11
39823;BME280;25499;53.958;10.970;2022-09-09T15:54:18;100859.72;;;17.92;74.76
39823;BME280;25499;53.958;10.970;2022-09-09T15:56:46;100870.19;;;17.95;75.59
39823;BME280;25499;53.958;10.970;2022-09-09T15:59:15;100869.56;;;17.86;76.54
39823;BME280;25499;53.958;10.970;2022-09-09T16:01:41;100874.69;;;17.91;77.10
39823;BME280;25499;53.958;10.970;2022-09-09T16:04:07;100871.56;;;17.77;77.63
39823;BME280;25499;53.958;10.970;2022-09-09T16:06:33;100869.59;;;17.83;76.20
39823;BME280;25499;53.958;10.970;2022-09-09T16:08:58;100868.47;;;17.64;77.84
39823;BME280;25499;53.958;10.970;2022-09-09T16:11:28;100863.28;;;17.91;75.59
39823;BME280;25499;53.958;10.970;2022-09-09T16:13:54;100873.13;;;17.84;77.77
39823;BME280;25499;53.958;10.970;2022-09-09T16:16:25;100872.94;;;17.62;79.19
39823;BME280;25499;53.958;10.970;2022-09-09T16:18:54;100874.00;;;17.55;80.01
39823;BME280;25499;53.958;10.970;2022-09-09T16:21:28;100877.22;;;17.64;80.85
39823;BME280;25499;53.958;10.970;2022-09-09T16:23:55;100878.06;;;17.65;83.85
39823;BME280;25499;53.958;10.970;2022-09-09T16:26:21;100867.16;;;17.49;81.72
39823;BME280;25499;53.958;10.970;2022-09-09T16:28:47;100870.19;;;17.65;80.90
39823;BME280;25499;53.958;10.970;2022-09-09T16:31:18;100865.63;;;17.70;80.89
39823;BME280;25499;53.958;10.970;2022-09-09T16:33:44;100856.03;;;17.69;79.15
39823;BME280;25499;53.958;10.970;2022-09-09T16:36:12;100867.06;;;17.80;78.76
39823;BME280;25499;53.958;10.970;2022-09-09T16:38:38;100866.34;;;17.75;79.20
39823;BME280;25499;53.958;10.970;2022-09-09T16:41:05;100860.66;;;17.61;79.81
39823;BME280;25499;53.958;10.970;2022-09-09T16:43:31;100859.69;;;17.63;80.22
39823;BME280;25499;53.958;10.970;2022-09-09T16:45:57;100868.56;;;17.61;80.60
39823;BME280;25499;53.958;10.970;2022-09-09T16:48:22;100870.31;;;17.62;81.46
39823;BME280;25499;53.958;10.970;2022-09-09T16:50:48;100874.50;;;17.67;81.76
39823;BME280;25499;53.958;10.970;2022-09-09T16:53:14;100865.53;;;17.73;81.76
39823;BME280;25499;53.958;10.970;2022-09-09T16:55:40;100866.22;;;17.51;82.95
39823;BME280;25499;53.958;10.970;2022-09-09T16:58:07;100863.00;;;17.42;84.63
39823;BME280;25499;53.958;10.970;2022-09-09T17:00:34;100862.03;;;17.44;85.43
39823;BME280;25499;53.958;10.970;2022-09-09T17:02:59;100868.97;;;17.47;85.82
39823;BME280;25499;53.958;10.970;2022-09-09T17:05:24;100868.09;;;17.46;85.99
39823;BME280;25499;53.958;10.970;2022-09-09T17:07:50;100872.59;;;17.43;87.16
39823;BME280;25499;53.958;10.970;2022-09-09T17:10:16;100867.13;;;17.50;87.42
39823;BME280;25499;53.958;10.970;2022-09-09T17:12:41;100868.22;;;17.43;87.94
39823;BME280;25499;53.958;10.970;2022-09-09T17:15:07;100871.38;;;17.55;87.85
39823;BME280;25499;53.958;10.970;2022-09-09T17:17:32;100878.56;;;17.78;85.96
39823;BME280;25499;53.958;10.970;2022-09-09T17:19:58;100881.84;;;17.86;85.92
39823;BME280;25499;53.958;10.970;2022-09-09T17:22:23;100882.03;;;17.51;88.23
39823;BME280;25499;53.958;10.970;2022-09-09T17:24:48;100877.09;;;17.39;88.47
39823;BME280;25499;53.958;10.970;2022-09-09T17:27:14;100885.81;;;17.41;88.18
39823;BME280;25499;53.958;10.970;2022-09-09T17:29:39;100883.00;;;17.18;89.07
39823;BME280;25499;53.958;10.970;2022-09-09T17:32:06;100890.66;;;17.25;89.81
39823;BME280;25499;53.958;10.970;2022-09-09T17:34:33;100890.81;;;17.19;90.90
39823;BME280;25499;53.958;10.970;2022-09-09T17:36:58;100893.56;;;17.16;91.83
39823;BME280;25499;53.958;10.970;2022-09-09T17:39:24;100892.03;;;17.07;92.70
39823;BME280;25499;53.958;10.970;2022-09-09T17:41:49;100896.16;;;17.18;91.82
39823;BME280;25499;53.958;10.970;2022-09-09T17:44:15;100899.97;;;17.37;91.01
39823;BME280;25499;53.958;10.970;2022-09-09T17:46:42;100904.66;;;17.26;91.31
39823;BME280;25499;53.958;10.970;2022-09-09T17:49:15;100902.47;;;17.10;91.59
39823;BME280;25499;53.958;10.970;2022-09-09T17:51:43;100901.66;;;17.08;92.20
39823;BME280;25499;53.958;10.970;2022-09-09T17:54:17;100907.50;;;17.20;92.40
39823;BME280;25499;53.958;10.970;2022-09-09T17:56:43;100908.00;;;17.01;92.91
39823;BME280;25499;53.958;10.970;2022-09-09T17:59:11;100911.59;;;16.97;93.34
39823;BME280;25499;53.958;10.970;2022-09-09T18:01:39;100915.16;;;16.96;94.21
39823;BME280;25499;53.958;10.970;2022-09-09T18:04:06;100912.53;;;16.96;93.99
39823;BME280;25499;53.958;10.970;2022-09-09T18:06:38;100912.94;;;16.79;94.78
39823;BME280;25499;53.958;10.970;2022-09-09T18:09:06;100917.56;;;16.69;96.18
39823;BME280;25499;53.958;10.970;2022-09-09T18:11:35;100923.97;;;16.93;96.16
39823;BME280;25499;53.958;10.970;2022-09-09T18:14:03;100916.22;;;16.89;95.73
39823;BME280;25499;53.958;10.970;2022-09-09T18:16:31;100921.69;;;16.79;95.77
39823;BME280;25499;53.958;10.970;2022-09-09T18:19:00;100923.81;;;16.65;96.82
39823;BME280;25499;53.958;10.970;2022-09-09T18:21:29;100926.06;;;16.81;95.60
39823;BME280;25499;53.958;10.970;2022-09-09T18:24:01;100931.47;;;16.74;94.92
39823;BME280;25499;53.958;10.970;2022-09-09T18:26:27;100945.38;;;16.78;95.74
39823;BME280;25499;53.958;10.970;2022-09-09T18:28:55;100939.25;;;16.45;96.46
39823;BME280;25499;53.958;10.970;2022-09-09T18:31:22;100946.56;;;16.30;97.30
39823;BME280;25499;53.958;10.970;2022-09-09T18:33:49;100950.78;;;16.37;96.09
39823;BME280;25499;53.958;10.970;2022-09-09T18:36:21;100948.91;;;16.42;94.64
39823;BME280;25499;53.958;10.970;2022-09-09T18:38:48;100950.41;;;16.53;93.96
39823;BME280;25499;53.958;10.970;2022-09-09T18:41:19;100947.94;;;16.47;93.74
39823;BME280;25499;53.958;10.970;2022-09-09T18:43:54;100954.06;;;16.82;91.73
39823;BME280;25499;53.958;10.970;2022-09-09T18:46:23;100950.25;;;16.59;91.91
39823;BME280;25499;53.958;10.970;2022-09-09T18:48:48;100952.91;;;16.57;91.80
39823;BME280;25499;53.958;10.970;2022-09-09T18:51:17;100957.31;;;16.57;91.65
39823;BME280;25499;53.958;10.970;2022-09-09T18:53:48;100954.28;;;16.38;93.22
39823;BME280;25499;53.958;10.970;2022-09-09T18:56:14;100955.56;;;16.20;95.03
39823;BME280;25499;53.958;10.970;2022-09-09T18:58:39;100953.28;;;16.06;95.61
39823;BME280;25499;53.958;10.970;2022-09-09T19:01:12;100955.47;;;16.25;95.67
39823;BME280;25499;53.958;10.970;2022-09-09T19:03:38;100951.72;;;15.97;96.39
39823;BME280;25499;53.958;10.970;2022-09-09T19:06:06;100955.28;;;15.93;97.07
39823;BME280;25499;53.958;10.970;2022-09-09T19:08:34;100947.41;;;15.93;97.23
39823;BME280;25499;53.958;10.970;2022-09-09T19:11:05;100939.53;;;15.93;96.55
39823;BME280;25499;53.958;10.970;2022-09-09T19:13:31;100946.56;;;15.93;97.09
39823;BME280;25499;53.958;10.970;2022-09-09T19:16:11;100949.66;;;15.68;98.28
39823;BME280;25499;53.958;10.970;2022-09-09T19:18:37;100952.41;;;15.63;98.90
39823;BME280;25499;53.958;10.970;2022-09-09T19:23:43;100956.16;;;15.52;99.33
39823;BME280;25499;53.958;10.970;2022-09-09T19:26:09;100952.69;;;15.50;99.19
39823;BME280;25499;53.958;10.970;2022-09-09T19:28:36;100960.63;;;15.46;99.79
39823;BME280;25499;53.958;10.970;2022-09-09T19:31:07;100968.63;;;15.39;100.00
39823;BME280;25499;53.958;10.970;2022-09-09T19:33:35;100966.84;;;15.41;99.28
39823;BME280;25499;53.958;10.970;2022-09-09T19:36:23;100972.97;;;15.41;100.00
39823;BME280;25499;53.958;10.970;2022-09-09T19:38:49;100968.66;;;15.37;100.00
39823;BME280;25499;53.958;10.970;2022-09-09T19:41:17;100974.13;;;15.26;100.00
39823;BME280;25499;53.958;10.970;2022-09-09T19:43:43;100976.56;;;15.36;100.00
39823;BME280;25499;53.958;10.970;2022-09-09T19:46:10;100976.06;;;15.17;100.00
39823;BME280;25499;53.958;10.970;2022-09-09T19:48:37;100977.06;;;15.09;100.00
39823;BME280;25499;53.958;10.970;2022-09-09T19:51:07;100974.25;;;15.20;100.00
39823;BME280;25499;53.958;10.970;2022-09-09T19:53:36;100977.88;;;15.13;100.00
39823;BME280;25499;53.958;10.970;2022-09-09T19:56:02;100978.75;;;15.12;100.00
39823;BME280;25499;53.958;10.970;2022-09-09T19:58:28;100977.00;;;15.14;100.00
39823;BME280;25499;53.958;10.970;2022-09-09T20:01:04;100974.25;;;15.20;100.00
39823;BME280;25499;53.958;10.970;2022-09-09T20:03:29;100973.41;;;15.18;100.00
39823;BME280;25499;53.958;10.970;2022-09-09T20:05:55;100973.47;;;15.15;100.00
39823;BME280;25499;53.958;10.970;2022-09-09T20:08:21;100974.03;;;15.33;100.00
39823;BME280;25499;53.958;10.970;2022-09-09T20:10:51;100968.97;;;15.22;100.00
39823;BME280;25499;53.958;10.970;2022-09-09T20:13:17;100967.91;;;15.30;100.00
39823;BME280;25499;53.958;10.970;2022-09-09T20:15:42;100969.91;;;15.19;100.00
39823;BME280;25499;53.958;10.970;2022-09-09T20:18:07;100972.59;;;15.15;100.00
39823;BME280;25499;53.958;10.970;2022-09-09T20:20:33;100965.28;;;15.32;100.00
39823;BME280;25499;53.958;10.970;2022-09-09T20:22:58;100964.47;;;15.28;100.00
39823;BME280;25499;53.958;10.970;2022-09-09T20:25:23;100961.22;;;15.16;100.00
39823;BME280;25499;53.958;10.970;2022-09-09T20:27:49;100972.09;;;15.41;100.00
39823;BME280;25499;53.958;10.970;2022-09-09T20:30:14;100968.34;;;15.09;100.00
39823;BME280;25499;53.958;10.970;2022-09-09T20:32:39;100974.06;;;14.81;100.00
39823;BME280;25499;53.958;10.970;2022-09-09T20:35:06;100972.06;;;14.96;100.00
39823;BME280;25499;53.958;10.970;2022-09-09T20:37:32;100975.72;;;14.88;100.00
39823;BME280;25499;53.958;10.970;2022-09-09T20:39:57;100977.31;;;14.96;100.00
39823;BME280;25499;53.958;10.970;2022-09-09T20:42:26;100983.56;;;14.88;100.00
39823;BME280;25499;53.958;10.970;2022-09-09T20:44:51;100984.00;;;15.12;100.00
39823;BME280;25499;53.958;10.970;2022-09-09T20:47:16;100979.22;;;15.34;99.77
39823;BME280;25499;53.958;10.970;2022-09-09T20:49:42;100985.31;;;15.36;98.85
39823;BME280;25499;53.958;10.970;2022-09-09T20:52:08;100977.09;;;15.08;99.52
39823;BME280;25499;53.958;10.970;2022-09-09T20:54:35;100979.78;;;15.05;98.79
39823;BME280;25499;53.958;10.970;2022-09-09T20:57:01;100988.34;;;15.15;98.39
39823;BME280;25499;53.958;10.970;2022-09-09T20:59:28;100985.91;;;15.05;98.13
39823;BME280;25499;53.958;10.970;2022-09-09T21:01:55;100984.44;;;14.89;98.09
39823;BME280;25499;53.958;10.970;2022-09-09T21:04:21;100988.00;;;14.83;98.77
39823;BME280;25499;53.958;10.970;2022-09-09T21:06:48;100987.09;;;14.86;99.40
39823;BME280;25499;53.958;10.970;2022-09-09T21:09:14;100977.72;;;14.72;98.50
39823;BME280;25499;53.958;10.970;2022-09-09T21:11:40;100975.09;;;14.72;98.66
39823;BME280;25499;53.958;10.970;2022-09-09T21:14:06;100970.59;;;14.79;98.48
39823;BME280;25499;53.958;10.970;2022-09-09T21:16:31;100973.38;;;14.71;99.14
39823;BME280;25499;53.958;10.970;2022-09-09T21:18:57;100970.84;;;14.65;99.43